Cundys Harbor, Maine
Current Conditions -  °F | °C
As of 6:53 PM on Friday 21 Nov 2014 (Local Time) from KIWI Reporting Station
Clear Clear  
Wind Chill: 19°   Ceiling: Unl
Heat Index: 25°   Visibility: 10mi
Dew Point:   Wind: 5mph
Humidity: 46%   Direction: NA
Pressure: 30.26"   Gusts: NA
Location:  43.903°N, 69.9809°W
Report Text: KIWI 212353Z AUTO VRB04KT 10SM CLR M04/M14 A3026 RMK AO2 SLP249 T10391139 10000 21039 51036
Loading
Personal Weather Stations






























Interactive Weather Map New forecast layout! Learn more

10-Day Weather Forecast

Advertisements
Track Severe Weather on mobile